sensor_id;sensor_type;location;lat;lon;timestamp;temperature;humidity
73547;SHT30;61807;48.384;-4.386;2023-04-25T00:02:09;10.14;70.38
73547;SHT30;61807;48.384;-4.386;2023-04-25T00:04:34;10.13;70.59
73547;SHT30;61807;48.384;-4.386;2023-04-25T00:07:00;10.16;70.84
73547;SHT30;61807;48.384;-4.386;2023-04-25T00:09:29;10.20;70.89
73547;SHT30;61807;48.384;-4.386;2023-04-25T00:11:54;10.24;70.93
73547;SHT30;61807;48.384;-4.386;2023-04-25T00:14:20;10.24;70.88
73547;SHT30;61807;48.384;-4.386;2023-04-25T00:16:45;10.26;70.84
73547;SHT30;61807;48.384;-4.386;2023-04-25T00:19:11;10.24;70.78
73547;SHT30;61807;48.384;-4.386;2023-04-25T00:21:36;10.26;70.85
73547;SHT30;61807;48.384;-4.386;2023-04-25T00:24:06;10.24;70.84
73547;SHT30;61807;48.384;-4.386;2023-04-25T00:26:31;10.24;70.79
73547;SHT30;61807;48.384;-4.386;2023-04-25T00:28:57;10.21;70.71
73547;SHT30;61807;48.384;-4.386;2023-04-25T00:31:22;10.18;70.74
73547;SHT30;61807;48.384;-4.386;2023-04-25T00:33:48;10.12;70.74
73547;SHT30;61807;48.384;-4.386;2023-04-25T00:36:13;10.05;70.83
73547;SHT30;61807;48.384;-4.386;2023-04-25T00:38:39;10.00;70.84
73547;SHT30;61807;48.384;-4.386;2023-04-25T00:41:07;9.99;70.84
73547;SHT30;61807;48.384;-4.386;2023-04-25T00:43:32;9.90;70.98
73547;SHT30;61807;48.384;-4.386;2023-04-25T00:46:00;9.89;71.14
73547;SHT30;61807;48.384;-4.386;2023-04-25T00:48:26;9.85;71.19
73547;SHT30;61807;48.384;-4.386;2023-04-25T00:50:54;9.81;71.32
73547;SHT30;61807;48.384;-4.386;2023-04-25T00:53:21;9.76;71.36
73547;SHT30;61807;48.384;-4.386;2023-04-25T00:55:47;9.75;71.35
73547;SHT30;61807;48.384;-4.386;2023-04-25T00:58:13;9.69;71.42
73547;SHT30;61807;48.384;-4.386;2023-04-25T01:00:39;9.66;71.53
73547;SHT30;61807;48.384;-4.386;2023-04-25T01:03:05;9.61;71.54
73547;SHT30;61807;48.384;-4.386;2023-04-25T01:05:31;9.57;71.70
73547;SHT30;61807;48.384;-4.386;2023-04-25T01:07:56;9.58;71.77
73547;SHT30;61807;48.384;-4.386;2023-04-25T01:10:22;9.59;71.82
73547;SHT30;61807;48.384;-4.386;2023-04-25T01:12:47;9.59;71.89
73547;SHT30;61807;48.384;-4.386;2023-04-25T01:15:13;9.57;71.87
73547;SHT30;61807;48.384;-4.386;2023-04-25T01:17:40;9.54;71.95
73547;SHT30;61807;48.384;-4.386;2023-04-25T01:20:06;9.49;71.90
73547;SHT30;61807;48.384;-4.386;2023-04-25T01:22:32;9.49;71.89
73547;SHT30;61807;48.384;-4.386;2023-04-25T01:24:58;9.48;71.89
73547;SHT30;61807;48.384;-4.386;2023-04-25T01:27:25;9.45;72.09
73547;SHT30;61807;48.384;-4.386;2023-04-25T01:29:51;9.41;72.03
73547;SHT30;61807;48.384;-4.386;2023-04-25T01:32:17;9.38;72.22
73547;SHT30;61807;48.384;-4.386;2023-04-25T01:34:43;9.34;72.30
73547;SHT30;61807;48.384;-4.386;2023-04-25T01:37:08;9.34;72.41
73547;SHT30;61807;48.384;-4.386;2023-04-25T01:39:34;9.31;72.46
73547;SHT30;61807;48.384;-4.386;2023-04-25T01:41:59;9.32;72.48
73547;SHT30;61807;48.384;-4.386;2023-04-25T01:44:25;9.31;72.57
73547;SHT30;61807;48.384;-4.386;2023-04-25T01:46:51;9.34;72.53
73547;SHT30;61807;48.384;-4.386;2023-04-25T01:49:16;9.37;72.59
73547;SHT30;61807;48.384;-4.386;2023-04-25T01:51:42;9.38;72.60
73547;SHT30;61807;48.384;-4.386;2023-04-25T01:54:08;9.38;72.63
73547;SHT30;61807;48.384;-4.386;2023-04-25T01:56:37;9.44;72.69
73547;SHT30;61807;48.384;-4.386;2023-04-25T01:59:04;9.48;72.81
73547;SHT30;61807;48.384;-4.386;2023-04-25T02:01:29;9.49;72.86
73547;SHT30;61807;48.384;-4.386;2023-04-25T02:03:55;9.58;72.84
73547;SHT30;61807;48.384;-4.386;2023-04-25T02:06:20;9.62;72.99
73547;SHT30;61807;48.384;-4.386;2023-04-25T02:08:46;9.69;73.01
73547;SHT30;61807;48.384;-4.386;2023-04-25T02:11:11;9.76;73.01
73547;SHT30;61807;48.384;-4.386;2023-04-25T02:13:37;9.85;73.06
73547;SHT30;61807;48.384;-4.386;2023-04-25T02:16:02;9.89;73.02
73547;SHT30;61807;48.384;-4.386;2023-04-25T02:18:27;9.90;73.02
73547;SHT30;61807;48.384;-4.386;2023-04-25T02:20:53;9.97;73.00
73547;SHT30;61807;48.384;-4.386;2023-04-25T02:23:18;10.02;73.00
73547;SHT30;61807;48.384;-4.386;2023-04-25T02:25:44;10.06;73.01
73547;SHT30;61807;48.384;-4.386;2023-04-25T02:28:10;10.10;73.13
73547;SHT30;61807;48.384;-4.386;2023-04-25T02:30:36;10.17;73.12
73547;SHT30;61807;48.384;-4.386;2023-04-25T02:33:01;10.23;73.00
73547;SHT30;61807;48.384;-4.386;2023-04-25T02:35:26;10.30;72.94
73547;SHT30;61807;48.384;-4.386;2023-04-25T02:37:52;10.30;73.02
73547;SHT30;61807;48.384;-4.386;2023-04-25T02:40:17;10.33;72.99
73547;SHT30;61807;48.384;-4.386;2023-04-25T02:42:43;10.36;73.08
73547;SHT30;61807;48.384;-4.386;2023-04-25T02:45:10;10.37;73.06
73547;SHT30;61807;48.384;-4.386;2023-04-25T02:47:36;10.38;73.00
73547;SHT30;61807;48.384;-4.386;2023-04-25T02:50:01;10.43;72.91
73547;SHT30;61807;48.384;-4.386;2023-04-25T02:52:26;10.46;72.92
73547;SHT30;61807;48.384;-4.386;2023-04-25T02:54:52;10.40;72.97
73547;SHT30;61807;48.384;-4.386;2023-04-25T02:57:17;10.37;73.05
73547;SHT30;61807;48.384;-4.386;2023-04-25T02:59:43;10.34;73.03
73547;SHT30;61807;48.384;-4.386;2023-04-25T03:02:08;10.36;73.06
73547;SHT30;61807;48.384;-4.386;2023-04-25T03:04:33;10.33;73.11
73547;SHT30;61807;48.384;-4.386;2023-04-25T03:06:59;10.34;73.10
73547;SHT30;61807;48.384;-4.386;2023-04-25T03:09:24;10.32;73.01
73547;SHT30;61807;48.384;-4.386;2023-04-25T03:11:50;10.29;73.09
73547;SHT30;61807;48.384;-4.386;2023-04-25T03:14:15;10.29;73.06
73547;SHT30;61807;48.384;-4.386;2023-04-25T03:16:40;10.23;73.01
73547;SHT30;61807;48.384;-4.386;2023-04-25T03:19:06;10.14;73.20
73547;SHT30;61807;48.384;-4.386;2023-04-25T03:21:33;10.18;73.19
73547;SHT30;61807;48.384;-4.386;2023-04-25T03:24:00;10.17;73.01
73547;SHT30;61807;48.384;-4.386;2023-04-25T03:26:25;10.16;72.93
73547;SHT30;61807;48.384;-4.386;2023-04-25T03:28:50;10.16;72.93
73547;SHT30;61807;48.384;-4.386;2023-04-25T03:31:16;10.14;72.81
73547;SHT30;61807;48.384;-4.386;2023-04-25T03:33:41;10.10;72.76
73547;SHT30;61807;48.384;-4.386;2023-04-25T03:36:07;10.07;72.71
73547;SHT30;61807;48.384;-4.386;2023-04-25T03:38:32;10.03;72.76
73547;SHT30;61807;48.384;-4.386;2023-04-25T03:40:58;10.00;72.80
73547;SHT30;61807;48.384;-4.386;2023-04-25T03:43:23;9.96;72.71
73547;SHT30;61807;48.384;-4.386;2023-04-25T03:45:49;9.88;72.96
73547;SHT30;61807;48.384;-4.386;2023-04-25T03:48:14;9.82;73.11
73547;SHT30;61807;48.384;-4.386;2023-04-25T03:50:40;9.81;73.17
73547;SHT30;61807;48.384;-4.386;2023-04-25T03:53:05;9.75;73.21
73547;SHT30;61807;48.384;-4.386;2023-04-25T03:55:31;9.71;73.34
73547;SHT30;61807;48.384;-4.386;2023-04-25T03:57:57;9.71;73.36
73547;SHT30;61807;48.384;-4.386;2023-04-25T04:00:23;9.68;73.32
73547;SHT30;61807;48.384;-4.386;2023-04-25T04:02:49;9.66;73.35
73547;SHT30;61807;48.384;-4.386;2023-04-25T04:05:14;9.65;73.35
73547;SHT30;61807;48.384;-4.386;2023-04-25T04:07:39;9.65;73.34
73547;SHT30;61807;48.384;-4.386;2023-04-25T04:10:07;9.66;73.24
73547;SHT30;61807;48.384;-4.386;2023-04-25T04:12:33;9.62;73.16
73547;SHT30;61807;48.384;-4.386;2023-04-25T04:14:58;9.61;73.10
73547;SHT30;61807;48.384;-4.386;2023-04-25T04:17:24;9.58;73.17
73547;SHT30;61807;48.384;-4.386;2023-04-25T04:19:50;9.58;73.24
73547;SHT30;61807;48.384;-4.386;2023-04-25T04:22:16;9.58;73.19
73547;SHT30;61807;48.384;-4.386;2023-04-25T04:24:41;9.59;73.24
73547;SHT30;61807;48.384;-4.386;2023-04-25T04:27:09;9.58;73.24
73547;SHT30;61807;48.384;-4.386;2023-04-25T04:29:34;9.59;73.28
73547;SHT30;61807;48.384;-4.386;2023-04-25T04:32:02;9.61;73.31
73547;SHT30;61807;48.384;-4.386;2023-04-25T04:34:27;9.65;73.31
73547;SHT30;61807;48.384;-4.386;2023-04-25T04:36:52;9.66;73.33
73547;SHT30;61807;48.384;-4.386;2023-04-25T04:39:18;9.71;73.18
73547;SHT30;61807;48.384;-4.386;2023-04-25T04:41:43;9.68;73.22
73547;SHT30;61807;48.384;-4.386;2023-04-25T04:44:08;9.72;73.26
73547;SHT30;61807;48.384;-4.386;2023-04-25T04:46:35;9.69;73.35
73547;SHT30;61807;48.384;-4.386;2023-04-25T04:49:04;9.71;73.42
73547;SHT30;61807;48.384;-4.386;2023-04-25T04:51:30;9.69;73.38
73547;SHT30;61807;48.384;-4.386;2023-04-25T04:53:56;9.72;73.38
73547;SHT30;61807;48.384;-4.386;2023-04-25T04:56:23;9.69;73.45
73547;SHT30;61807;48.384;-4.386;2023-04-25T04:58:50;9.72;73.44
73547;SHT30;61807;48.384;-4.386;2023-04-25T05:01:16;9.75;73.51
73547;SHT30;61807;48.384;-4.386;2023-04-25T05:03:41;9.75;73.39
73547;SHT30;61807;48.384;-4.386;2023-04-25T05:06:06;9.79;73.43
73547;SHT30;61807;48.384;-4.386;2023-04-25T05:08:33;9.78;73.42
73547;SHT30;61807;48.384;-4.386;2023-04-25T05:10:59;9.81;73.45
73547;SHT30;61807;48.384;-4.386;2023-04-25T05:13:24;9.83;73.43
73547;SHT30;61807;48.384;-4.386;2023-04-25T05:15:50;9.85;73.44
73547;SHT30;61807;48.384;-4.386;2023-04-25T05:18:15;9.88;73.45
73547;SHT30;61807;48.384;-4.386;2023-04-25T05:20:40;9.86;73.53
73547;SHT30;61807;48.384;-4.386;2023-04-25T05:23:06;9.86;73.52
73547;SHT30;61807;48.384;-4.386;2023-04-25T05:25:31;9.86;73.52
73547;SHT30;61807;48.384;-4.386;2023-04-25T05:27:57;9.83;73.57
73547;SHT30;61807;48.384;-4.386;2023-04-25T05:30:23;9.86;73.53
73547;SHT30;61807;48.384;-4.386;2023-04-25T05:32:48;9.85;73.47
73547;SHT30;61807;48.384;-4.386;2023-04-25T05:35:14;9.81;73.51
73547;SHT30;61807;48.384;-4.386;2023-04-25T05:37:39;9.83;73.49
73547;SHT30;61807;48.384;-4.386;2023-04-25T05:40:05;9.81;73.51
73547;SHT30;61807;48.384;-4.386;2023-04-25T05:42:32;9.79;73.65
73547;SHT30;61807;48.384;-4.386;2023-04-25T05:44:57;9.78;73.74
73547;SHT30;61807;48.384;-4.386;2023-04-25T05:47:23;9.82;73.70
73547;SHT30;61807;48.384;-4.386;2023-04-25T05:49:48;9.85;73.71
73547;SHT30;61807;48.384;-4.386;2023-04-25T05:52:13;9.90;73.69
73547;SHT30;61807;48.384;-4.386;2023-04-25T05:54:40;9.95;73.70
73547;SHT30;61807;48.384;-4.386;2023-04-25T05:57:06;9.96;73.73
73547;SHT30;61807;48.384;-4.386;2023-04-25T05:59:31;9.95;73.68
73547;SHT30;61807;48.384;-4.386;2023-04-25T06:01:57;9.97;73.77
73547;SHT30;61807;48.384;-4.386;2023-04-25T06:04:22;10.05;73.86
73547;SHT30;61807;48.384;-4.386;2023-04-25T06:06:48;10.05;73.73
73547;SHT30;61807;48.384;-4.386;2023-04-25T06:09:13;9.99;73.61
73547;SHT30;61807;48.384;-4.386;2023-04-25T06:11:38;10.00;73.63
73547;SHT30;61807;48.384;-4.386;2023-04-25T06:14:04;10.02;73.72
73547;SHT30;61807;48.384;-4.386;2023-04-25T06:16:29;10.05;73.65
73547;SHT30;61807;48.384;-4.386;2023-04-25T06:18:55;10.05;73.70
73547;SHT30;61807;48.384;-4.386;2023-04-25T06:21:20;10.09;73.73
73547;SHT30;61807;48.384;-4.386;2023-04-25T06:23:45;10.09;73.68
73547;SHT30;61807;48.384;-4.386;2023-04-25T06:26:11;10.09;73.60
73547;SHT30;61807;48.384;-4.386;2023-04-25T06:28:36;10.06;73.73
73547;SHT30;61807;48.384;-4.386;2023-04-25T06:31:02;10.03;73.62
73547;SHT30;61807;48.384;-4.386;2023-04-25T06:33:27;10.09;73.65
73547;SHT30;61807;48.384;-4.386;2023-04-25T06:35:52;10.13;73.76
73547;SHT30;61807;48.384;-4.386;2023-04-25T06:38:18;10.16;73.68
73547;SHT30;61807;48.384;-4.386;2023-04-25T06:40:43;10.20;73.73
73547;SHT30;61807;48.384;-4.386;2023-04-25T06:43:09;10.27;73.75
73547;SHT30;61807;48.384;-4.386;2023-04-25T06:45:35;10.33;73.88
73547;SHT30;61807;48.384;-4.386;2023-04-25T06:48:00;10.41;73.77
73547;SHT30;61807;48.384;-4.386;2023-04-25T06:50:26;10.46;73.84
73547;SHT30;61807;48.384;-4.386;2023-04-25T06:52:51;10.54;73.83
73547;SHT30;61807;48.384;-4.386;2023-04-25T06:55:17;10.67;73.83
73547;SHT30;61807;48.384;-4.386;2023-04-25T06:57:42;10.74;73.77
73547;SHT30;61807;48.384;-4.386;2023-04-25T07:00:08;10.79;73.81
73547;SHT30;61807;48.384;-4.386;2023-04-25T07:02:35;10.89;73.59
73547;SHT30;61807;48.384;-4.386;2023-04-25T07:05:01;10.92;73.41
73547;SHT30;61807;48.384;-4.386;2023-04-25T07:07:29;10.96;73.42
73547;SHT30;61807;48.384;-4.386;2023-04-25T07:09:55;11.02;73.47
73547;SHT30;61807;48.384;-4.386;2023-04-25T07:12:21;11.09;73.42
73547;SHT30;61807;48.384;-4.386;2023-04-25T07:14:46;11.20;73.32
73547;SHT30;61807;48.384;-4.386;2023-04-25T07:17:12;11.33;73.24
73547;SHT30;61807;48.384;-4.386;2023-04-25T07:19:37;11.46;73.19
73547;SHT30;61807;48.384;-4.386;2023-04-25T07:22:05;11.64;72.89
73547;SHT30;61807;48.384;-4.386;2023-04-25T07:24:30;11.78;72.80
73547;SHT30;61807;48.384;-4.386;2023-04-25T07:26:56;11.91;72.68
73547;SHT30;61807;48.384;-4.386;2023-04-25T07:29:21;12.02;72.36
73547;SHT30;61807;48.384;-4.386;2023-04-25T07:31:47;12.14;72.14
73547;SHT30;61807;48.384;-4.386;2023-04-25T07:34:13;12.20;71.58
73547;SHT30;61807;48.384;-4.386;2023-04-25T07:36:38;12.25;71.41
73547;SHT30;61807;48.384;-4.386;2023-04-25T07:39:03;12.31;71.47
73547;SHT30;61807;48.384;-4.386;2023-04-25T07:41:29;12.41;71.44
73547;SHT30;61807;48.384;-4.386;2023-04-25T07:43:54;12.52;71.46
73547;SHT30;61807;48.384;-4.386;2023-04-25T07:46:20;12.63;71.33
73547;SHT30;61807;48.384;-4.386;2023-04-25T07:48:45;12.73;71.11
73547;SHT30;61807;48.384;-4.386;2023-04-25T07:51:10;12.76;71.01
73547;SHT30;61807;48.384;-4.386;2023-04-25T07:53:36;12.89;71.09
73547;SHT30;61807;48.384;-4.386;2023-04-25T07:56:02;13.04;70.91
73547;SHT30;61807;48.384;-4.386;2023-04-25T07:58:28;13.11;70.33
73547;SHT30;61807;48.384;-4.386;2023-04-25T08:00:53;13.17;69.77
73547;SHT30;61807;48.384;-4.386;2023-04-25T08:03:19;13.20;69.79
73547;SHT30;61807;48.384;-4.386;2023-04-25T08:05:45;13.24;69.60
73547;SHT30;61807;48.384;-4.386;2023-04-25T08:08:10;13.30;69.26
73547;SHT30;61807;48.384;-4.386;2023-04-25T08:10:36;13.31;69.12
73547;SHT30;61807;48.384;-4.386;2023-04-25T08:13:01;13.31;68.90
73547;SHT30;61807;48.384;-4.386;2023-04-25T08:15:27;13.30;68.98
73547;SHT30;61807;48.384;-4.386;2023-04-25T08:17:52;13.38;68.97
73547;SHT30;61807;48.384;-4.386;2023-04-25T08:20:18;13.45;68.55
73547;SHT30;61807;48.384;-4.386;2023-04-25T08:22:43;13.48;68.61
73547;SHT30;61807;48.384;-4.386;2023-04-25T08:25:09;13.55;68.36
73547;SHT30;61807;48.384;-4.386;2023-04-25T08:27:34;13.59;67.91
73547;SHT30;61807;48.384;-4.386;2023-04-25T08:30:00;13.62;68.00
73547;SHT30;61807;48.384;-4.386;2023-04-25T08:32:25;13.69;68.02
73547;SHT30;61807;48.384;-4.386;2023-04-25T08:34:51;13.72;67.54
73547;SHT30;61807;48.384;-4.386;2023-04-25T08:37:19;13.73;67.52
73547;SHT30;61807;48.384;-4.386;2023-04-25T08:39:45;13.76;67.60
73547;SHT30;61807;48.384;-4.386;2023-04-25T08:42:12;13.79;66.94
73547;SHT30;61807;48.384;-4.386;2023-04-25T08:44:37;13.73;67.10
73547;SHT30;61807;48.384;-4.386;2023-04-25T08:47:03;13.73;67.23
73547;SHT30;61807;48.384;-4.386;2023-04-25T08:49:31;13.80;67.05
73547;SHT30;61807;48.384;-4.386;2023-04-25T08:51:59;13.89;67.45
73547;SHT30;61807;48.384;-4.386;2023-04-25T08:54:27;14.07;67.54
73547;SHT30;61807;48.384;-4.386;2023-04-25T08:56:54;14.26;67.18
73547;SHT30;61807;48.384;-4.386;2023-04-25T08:59:22;14.45;66.57
73547;SHT30;61807;48.384;-4.386;2023-04-25T09:01:49;14.64;65.89
73547;SHT30;61807;48.384;-4.386;2023-04-25T09:04:15;14.68;65.79
73547;SHT30;61807;48.384;-4.386;2023-04-25T09:06:40;14.74;65.63
73547;SHT30;61807;48.384;-4.386;2023-04-25T09:09:07;14.71;65.32
73547;SHT30;61807;48.384;-4.386;2023-04-25T09:11:35;14.63;65.36
73547;SHT30;61807;48.384;-4.386;2023-04-25T09:14:22;14.72;65.51
73547;SHT30;61807;48.384;-4.386;2023-04-25T09:21:58;14.99;63.80
73547;SHT30;61807;48.384;-4.386;2023-04-25T09:27:09;15.22;63.14
73547;SHT30;61807;48.384;-4.386;2023-04-25T09:29:36;15.23;62.91
73547;SHT30;61807;48.384;-4.386;2023-04-25T09:32:20;15.23;62.84
73547;SHT30;61807;48.384;-4.386;2023-04-25T09:34:56;15.32;62.84
73547;SHT30;61807;48.384;-4.386;2023-04-25T09:37:29;15.51;60.54
73547;SHT30;61807;48.384;-4.386;2023-04-25T09:39:56;15.58;61.46
73547;SHT30;61807;48.384;-4.386;2023-04-25T09:42:26;15.58;60.98
73547;SHT30;61807;48.384;-4.386;2023-04-25T09:44:54;15.49;60.72
73547;SHT30;61807;48.384;-4.386;2023-04-25T09:47:20;15.35;60.89
73547;SHT30;61807;48.384;-4.386;2023-04-25T09:49:47;15.22;61.30
73547;SHT30;61807;48.384;-4.386;2023-04-25T09:52:18;15.12;61.03
73547;SHT30;61807;48.384;-4.386;2023-04-25T09:54:45;15.05;60.99
73547;SHT30;61807;48.384;-4.386;2023-04-25T09:57:19;14.95;60.37
73547;SHT30;61807;48.384;-4.386;2023-04-25T09:59:55;14.84;60.56
73547;SHT30;61807;48.384;-4.386;2023-04-25T10:02:25;14.84;60.43
73547;SHT30;61807;48.384;-4.386;2023-04-25T10:04:53;14.93;60.85
73547;SHT30;61807;48.384;-4.386;2023-04-25T10:07:21;14.95;60.47
73547;SHT30;61807;48.384;-4.386;2023-04-25T10:10:00;15.00;60.66
73547;SHT30;61807;48.384;-4.386;2023-04-25T10:12:28;15.09;60.52
73547;SHT30;61807;48.384;-4.386;2023-04-25T10:14:54;15.10;60.09
73547;SHT30;61807;48.384;-4.386;2023-04-25T10:17:20;15.06;60.28
73547;SHT30;61807;48.384;-4.386;2023-04-25T10:19:47;15.10;60.69
73547;SHT30;61807;48.384;-4.386;2023-04-25T10:22:29;15.15;60.88
73547;SHT30;61807;48.384;-4.386;2023-04-25T10:24:55;15.15;60.61
73547;SHT30;61807;48.384;-4.386;2023-04-25T10:27:21;15.07;60.26
73547;SHT30;61807;48.384;-4.386;2023-04-25T10:30:00;15.12;60.86
73547;SHT30;61807;48.384;-4.386;2023-04-25T10:32:26;15.13;60.58
73547;SHT30;61807;48.384;-4.386;2023-04-25T10:34:51;15.12;60.27
73547;SHT30;61807;48.384;-4.386;2023-04-25T10:37:18;15.06;60.08
73547;SHT30;61807;48.384;-4.386;2023-04-25T10:39:44;15.02;59.54
73547;SHT30;61807;48.384;-4.386;2023-04-25T10:42:11;14.96;60.02
73547;SHT30;61807;48.384;-4.386;2023-04-25T10:44:38;14.91;60.01
73547;SHT30;61807;48.384;-4.386;2023-04-25T10:47:08;14.93;60.24
73547;SHT30;61807;48.384;-4.386;2023-04-25T10:49:41;14.96;60.05
73547;SHT30;61807;48.384;-4.386;2023-04-25T10:54:46;15.25;59.37
73547;SHT30;61807;48.384;-4.386;2023-04-25T10:57:43;15.36;58.75
73547;SHT30;61807;48.384;-4.386;2023-04-25T11:02:40;15.47;58.55
73547;SHT30;61807;48.384;-4.386;2023-04-25T11:05:06;15.57;59.22
73547;SHT30;61807;48.384;-4.386;2023-04-25T11:07:39;15.64;58.35
73547;SHT30;61807;48.384;-4.386;2023-04-25T11:10:09;15.57;58.09
73547;SHT30;61807;48.384;-4.386;2023-04-25T11:12:34;15.60;58.91
73547;SHT30;61807;48.384;-4.386;2023-04-25T11:15:04;15.70;58.67
73547;SHT30;61807;48.384;-4.386;2023-04-25T11:17:30;15.78;59.32
73547;SHT30;61807;48.384;-4.386;2023-04-25T11:19:56;15.87;59.16
73547;SHT30;61807;48.384;-4.386;2023-04-25T11:22:22;15.94;58.78
73547;SHT30;61807;48.384;-4.386;2023-04-25T11:24:48;15.98;58.45
73547;SHT30;61807;48.384;-4.386;2023-04-25T11:27:14;16.09;58.45
73547;SHT30;61807;48.384;-4.386;2023-04-25T11:29:40;16.19;58.38
73547;SHT30;61807;48.384;-4.386;2023-04-25T11:32:06;16.25;58.56
73547;SHT30;61807;48.384;-4.386;2023-04-25T11:34:33;16.32;58.52
73547;SHT30;61807;48.384;-4.386;2023-04-25T11:37:01;16.36;57.28
73547;SHT30;61807;48.384;-4.386;2023-04-25T11:39:27;16.41;58.32
73547;SHT30;61807;48.384;-4.386;2023-04-25T11:41:53;16.46;58.21
73547;SHT30;61807;48.384;-4.386;2023-04-25T11:44:19;16.51;58.29
73547;SHT30;61807;48.384;-4.386;2023-04-25T11:46:45;16.60;57.66
73547;SHT30;61807;48.384;-4.386;2023-04-25T11:49:11;16.66;55.86
73547;SHT30;61807;48.384;-4.386;2023-04-25T11:51:44;16.62;56.31
73547;SHT30;61807;48.384;-4.386;2023-04-25T11:54:10;16.57;55.55
73547;SHT30;61807;48.384;-4.386;2023-04-25T11:56:37;16.48;55.35
73547;SHT30;61807;48.384;-4.386;2023-04-25T11:59:04;16.30;55.66
73547;SHT30;61807;48.384;-4.386;2023-04-25T12:01:40;16.26;56.54
73547;SHT30;61807;48.384;-4.386;2023-04-25T12:06:42;16.26;56.79
73547;SHT30;61807;48.384;-4.386;2023-04-25T12:09:10;16.24;55.65
73547;SHT30;61807;48.384;-4.386;2023-04-25T12:11:49;16.11;55.42
73547;SHT30;61807;48.384;-4.386;2023-04-25T12:14:31;16.00;56.34
73547;SHT30;61807;48.384;-4.386;2023-04-25T12:16:59;15.90;56.27
73547;SHT30;61807;48.384;-4.386;2023-04-25T12:19:26;15.84;56.61
73547;SHT30;61807;48.384;-4.386;2023-04-25T12:21:56;15.85;56.59
73547;SHT30;61807;48.384;-4.386;2023-04-25T12:24:23;15.80;56.10
73547;SHT30;61807;48.384;-4.386;2023-04-25T12:27:08;15.73;55.47
73547;SHT30;61807;48.384;-4.386;2023-04-25T12:29:34;15.63;55.77
73547;SHT30;61807;48.384;-4.386;2023-04-25T12:32:00;15.65;56.27
73547;SHT30;61807;48.384;-4.386;2023-04-25T12:34:27;15.68;56.18
73547;SHT30;61807;48.384;-4.386;2023-04-25T12:36:52;15.73;55.27
73547;SHT30;61807;48.384;-4.386;2023-04-25T12:39:22;15.64;55.45
73547;SHT30;61807;48.384;-4.386;2023-04-25T12:41:48;15.61;56.64
73547;SHT30;61807;48.384;-4.386;2023-04-25T12:44:14;15.65;56.13
73547;SHT30;61807;48.384;-4.386;2023-04-25T12:46:40;15.64;56.91
73547;SHT30;61807;48.384;-4.386;2023-04-25T12:49:06;15.64;56.39
73547;SHT30;61807;48.384;-4.386;2023-04-25T12:51:35;15.63;56.59
73547;SHT30;61807;48.384;-4.386;2023-04-25T12:54:02;15.56;56.61
73547;SHT30;61807;48.384;-4.386;2023-04-25T12:56:28;15.49;56.52
73547;SHT30;61807;48.384;-4.386;2023-04-25T12:58:53;15.27;56.30
73547;SHT30;61807;48.384;-4.386;2023-04-25T13:01:20;15.15;56.21
73547;SHT30;61807;48.384;-4.386;2023-04-25T13:03:46;15.03;56.78
73547;SHT30;61807;48.384;-4.386;2023-04-25T13:06:11;14.95;56.95
73547;SHT30;61807;48.384;-4.386;2023-04-25T13:08:38;14.88;57.05
73547;SHT30;61807;48.384;-4.386;2023-04-25T13:11:04;14.88;57.08
73547;SHT30;61807;48.384;-4.386;2023-04-25T13:13:30;14.85;57.24
73547;SHT30;61807;48.384;-4.386;2023-04-25T13:15:57;14.86;57.20
73547;SHT30;61807;48.384;-4.386;2023-04-25T13:18:22;14.86;57.24
73547;SHT30;61807;48.384;-4.386;2023-04-25T13:20:54;14.92;57.03
73547;SHT30;61807;48.384;-4.386;2023-04-25T13:23:20;14.96;56.79
73547;SHT30;61807;48.384;-4.386;2023-04-25T13:25:46;15.03;56.67
73547;SHT30;61807;48.384;-4.386;2023-04-25T13:28:12;15.07;56.47
73547;SHT30;61807;48.384;-4.386;2023-04-25T13:30:38;15.12;56.55
73547;SHT30;61807;48.384;-4.386;2023-04-25T13:33:03;15.23;56.12
73547;SHT30;61807;48.384;-4.386;2023-04-25T13:35:30;15.22;56.26
73547;SHT30;61807;48.384;-4.386;2023-04-25T13:37:56;15.22;56.67
73547;SHT30;61807;48.384;-4.386;2023-04-25T13:40:21;15.22;56.97
73547;SHT30;61807;48.384;-4.386;2023-04-25T13:42:47;15.19;57.02
73547;SHT30;61807;48.384;-4.386;2023-04-25T13:45:12;15.18;56.88
73547;SHT30;61807;48.384;-4.386;2023-04-25T13:47:37;15.12;57.36
73547;SHT30;61807;48.384;-4.386;2023-04-25T13:50:04;15.10;57.22
73547;SHT30;61807;48.384;-4.386;2023-04-25T13:52:31;15.06;57.20
73547;SHT30;61807;48.384;-4.386;2023-04-25T13:54:57;15.03;56.82
73547;SHT30;61807;48.384;-4.386;2023-04-25T13:57:22;15.02;57.28
73547;SHT30;61807;48.384;-4.386;2023-04-25T13:59:47;15.05;57.91
73547;SHT30;61807;48.384;-4.386;2023-04-25T14:02:13;15.12;57.74
73547;SHT30;61807;48.384;-4.386;2023-04-25T14:04:38;15.13;58.01
73547;SHT30;61807;48.384;-4.386;2023-04-25T14:07:04;15.12;58.36
73547;SHT30;61807;48.384;-4.386;2023-04-25T14:09:30;15.16;58.98
73547;SHT30;61807;48.384;-4.386;2023-04-25T14:11:56;15.26;59.14
73547;SHT30;61807;48.384;-4.386;2023-04-25T14:14:22;15.33;59.29
73547;SHT30;61807;48.384;-4.386;2023-04-25T14:16:49;15.35;59.35
73547;SHT30;61807;48.384;-4.386;2023-04-25T14:19:15;15.37;59.61
73547;SHT30;61807;48.384;-4.386;2023-04-25T14:21:41;15.44;60.21
73547;SHT30;61807;48.384;-4.386;2023-04-25T14:24:08;15.61;60.29
73547;SHT30;61807;48.384;-4.386;2023-04-25T14:26:34;15.78;60.84
73547;SHT30;61807;48.384;-4.386;2023-04-25T14:29:00;15.91;60.81
73547;SHT30;61807;48.384;-4.386;2023-04-25T14:31:26;16.02;61.16
73547;SHT30;61807;48.384;-4.386;2023-04-25T14:33:52;16.12;61.18
73547;SHT30;61807;48.384;-4.386;2023-04-25T14:36:17;16.28;61.55
73547;SHT30;61807;48.384;-4.386;2023-04-25T14:38:42;16.41;61.93
73547;SHT30;61807;48.384;-4.386;2023-04-25T14:41:08;16.55;61.35
73547;SHT30;61807;48.384;-4.386;2023-04-25T14:43:34;16.57;61.51
73547;SHT30;61807;48.384;-4.386;2023-04-25T14:46:00;16.62;61.22
73547;SHT30;61807;48.384;-4.386;2023-04-25T14:48:26;16.62;60.83
73547;SHT30;61807;48.384;-4.386;2023-04-25T14:50:52;16.62;61.06
73547;SHT30;61807;48.384;-4.386;2023-04-25T14:53:17;16.62;61.42
73547;SHT30;61807;48.384;-4.386;2023-04-25T14:55:42;16.55;61.30
73547;SHT30;61807;48.384;-4.386;2023-04-25T14:58:08;16.46;61.48
73547;SHT30;61807;48.384;-4.386;2023-04-25T15:00:34;16.42;61.67
73547;SHT30;61807;48.384;-4.386;2023-04-25T15:02:59;16.39;61.40
73547;SHT30;61807;48.384;-4.386;2023-04-25T15:05:25;16.29;61.60
73547;SHT30;61807;48.384;-4.386;2023-04-25T15:07:50;16.26;61.65
73547;SHT30;61807;48.384;-4.386;2023-04-25T15:10:17;16.22;61.53
73547;SHT30;61807;48.384;-4.386;2023-04-25T15:12:43;16.21;61.96
73547;SHT30;61807;48.384;-4.386;2023-04-25T15:15:09;16.25;62.23
73547;SHT30;61807;48.384;-4.386;2023-04-25T15:17:40;16.30;62.03
73547;SHT30;61807;48.384;-4.386;2023-04-25T15:20:07;16.41;61.89
73547;SHT30;61807;48.384;-4.386;2023-04-25T15:22:35;16.51;61.77
73547;SHT30;61807;48.384;-4.386;2023-04-25T15:25:01;16.64;61.20
73547;SHT30;61807;48.384;-4.386;2023-04-25T15:27:26;16.80;60.76
73547;SHT30;61807;48.384;-4.386;2023-04-25T15:29:52;16.94;60.52
73547;SHT30;61807;48.384;-4.386;2023-04-25T15:32:18;16.95;60.07